sensor_id;sensor_type;location;lat;lon;timestamp;P1;durP1;ratioP1;P2;durP2;ratioP2
13720;SDS011;6932;51.438;5.470;2022-10-19T00:01:55;8.60;;;2.53;;
13720;SDS011;6932;51.438;5.470;2022-10-19T00:04:21;10.30;;;2.90;;
13720;SDS011;6932;51.438;5.470;2022-10-19T00:06:47;6.60;;;2.90;;
13720;SDS011;6932;51.438;5.470;2022-10-19T00:09:16;7.90;;;2.93;;
13720;SDS011;6932;51.438;5.470;2022-10-19T00:11:44;8.27;;;2.80;;
13720;SDS011;6932;51.438;5.470;2022-10-19T00:14:15;6.00;;;2.70;;
13720;SDS011;6932;51.438;5.470;2022-10-19T00:16:45;6.83;;;2.73;;
13720;SDS011;6932;51.438;5.470;2022-10-19T00:19:16;6.03;;;2.60;;
13720;SDS011;6932;51.438;5.470;2022-10-19T00:21:48;6.70;;;2.70;;
13720;SDS011;6932;51.438;5.470;2022-10-19T00:24:14;6.73;;;2.80;;
13720;SDS011;6932;51.438;5.470;2022-10-19T00:26:40;7.47;;;2.90;;
13720;SDS011;6932;51.438;5.470;2022-10-19T00:29:06;8.43;;;2.80;;
13720;SDS011;6932;51.438;5.470;2022-10-19T00:31:32;7.17;;;2.90;;
13720;SDS011;6932;51.438;5.470;2022-10-19T00:34:00;7.73;;;2.57;;
13720;SDS011;6932;51.438;5.470;2022-10-19T00:36:33;5.33;;;2.70;;
13720;SDS011;6932;51.438;5.470;2022-10-19T00:39:03;8.43;;;2.90;;
13720;SDS011;6932;51.438;5.470;2022-10-19T00:41:31;7.83;;;2.80;;
13720;SDS011;6932;51.438;5.470;2022-10-19T00:44:01;8.53;;;2.80;;
13720;SDS011;6932;51.438;5.470;2022-10-19T00:46:37;7.43;;;2.87;;
13720;SDS011;6932;51.438;5.470;2022-10-19T00:49:16;6.63;;;2.70;;
13720;SDS011;6932;51.438;5.470;2022-10-19T00:51:50;5.60;;;2.37;;
13720;SDS011;6932;51.438;5.470;2022-10-19T00:54:20;6.60;;;2.80;;
13720;SDS011;6932;51.438;5.470;2022-10-19T00:56:47;8.30;;;2.77;;
13720;SDS011;6932;51.438;5.470;2022-10-19T00:59:18;6.87;;;2.73;;
13720;SDS011;6932;51.438;5.470;2022-10-19T01:01:47;10.33;;;3.00;;
13720;SDS011;6932;51.438;5.470;2022-10-19T01:04:14;5.47;;;2.43;;
13720;SDS011;6932;51.438;5.470;2022-10-19T01:06:40;7.47;;;2.97;;
13720;SDS011;6932;51.438;5.470;2022-10-19T01:09:06;7.00;;;2.77;;
13720;SDS011;6932;51.438;5.470;2022-10-19T01:14:20;10.17;;;3.23;;
13720;SDS011;6932;51.438;5.470;2022-10-19T01:20:32;7.17;;;2.77;;
13720;SDS011;6932;51.438;5.470;2022-10-19T01:29:21;9.77;;;3.20;;
13720;SDS011;6932;51.438;5.470;2022-10-19T01:35:17;7.83;;;2.70;;
13720;SDS011;6932;51.438;5.470;2022-10-19T01:38:09;6.60;;;2.53;;
13720;SDS011;6932;51.438;5.470;2022-10-19T01:41:11;9.53;;;3.00;;
13720;SDS011;6932;51.438;5.470;2022-10-19T01:43:56;6.37;;;2.80;;
13720;SDS011;6932;51.438;5.470;2022-10-19T01:49:07;7.73;;;2.70;;
13720;SDS011;6932;51.438;5.470;2022-10-19T01:52:00;7.10;;;2.67;;
13720;SDS011;6932;51.438;5.470;2022-10-19T01:54:33;6.77;;;2.90;;
13720;SDS011;6932;51.438;5.470;2022-10-19T01:57:07;6.07;;;2.90;;
13720;SDS011;6932;51.438;5.470;2022-10-19T01:59:36;8.70;;;2.97;;
13720;SDS011;6932;51.438;5.470;2022-10-19T02:02:04;5.73;;;2.73;;
13720;SDS011;6932;51.438;5.470;2022-10-19T02:04:33;6.53;;;2.90;;
13720;SDS011;6932;51.438;5.470;2022-10-19T02:07:02;7.53;;;3.13;;
13720;SDS011;6932;51.438;5.470;2022-10-19T02:09:31;6.13;;;2.83;;
13720;SDS011;6932;51.438;5.470;2022-10-19T02:11:58;7.20;;;3.27;;
13720;SDS011;6932;51.438;5.470;2022-10-19T02:14:40;8.03;;;3.10;;
13720;SDS011;6932;51.438;5.470;2022-10-19T02:17:10;9.67;;;3.40;;
13720;SDS011;6932;51.438;5.470;2022-10-19T02:19:41;5.87;;;2.67;;
13720;SDS011;6932;51.438;5.470;2022-10-19T02:22:07;5.70;;;3.10;;
13720;SDS011;6932;51.438;5.470;2022-10-19T02:24:33;5.70;;;3.00;;
13720;SDS011;6932;51.438;5.470;2022-10-19T02:26:59;5.50;;;2.87;;
13720;SDS011;6932;51.438;5.470;2022-10-19T02:29:28;7.63;;;2.90;;
13720;SDS011;6932;51.438;5.470;2022-10-19T02:31:57;6.63;;;3.20;;
13720;SDS011;6932;51.438;5.470;2022-10-19T02:34:23;6.30;;;2.90;;
13720;SDS011;6932;51.438;5.470;2022-10-19T02:36:49;6.87;;;3.00;;
13720;SDS011;6932;51.438;5.470;2022-10-19T02:39:15;7.23;;;3.10;;
13720;SDS011;6932;51.438;5.470;2022-10-19T02:41:44;7.57;;;3.00;;
13720;SDS011;6932;51.438;5.470;2022-10-19T02:44:19;8.73;;;3.60;;
13720;SDS011;6932;51.438;5.470;2022-10-19T02:47:01;9.87;;;3.27;;
13720;SDS011;6932;51.438;5.470;2022-10-19T02:49:37;7.90;;;3.07;;
13720;SDS011;6932;51.438;5.470;2022-10-19T02:52:04;6.57;;;2.70;;
13720;SDS011;6932;51.438;5.470;2022-10-19T02:54:33;6.63;;;2.90;;
13720;SDS011;6932;51.438;5.470;2022-10-19T02:56:59;5.63;;;3.00;;
13720;SDS011;6932;51.438;5.470;2022-10-19T02:59:25;6.50;;;2.80;;
13720;SDS011;6932;51.438;5.470;2022-10-19T03:01:51;6.63;;;3.00;;
13720;SDS011;6932;51.438;5.470;2022-10-19T03:04:17;6.83;;;3.00;;
13720;SDS011;6932;51.438;5.470;2022-10-19T03:06:42;5.50;;;2.80;;
13720;SDS011;6932;51.438;5.470;2022-10-19T03:09:08;5.80;;;2.90;;
13720;SDS011;6932;51.438;5.470;2022-10-19T03:11:34;7.00;;;3.03;;
13720;SDS011;6932;51.438;5.470;2022-10-19T03:14:00;5.67;;;3.10;;
13720;SDS011;6932;51.438;5.470;2022-10-19T03:16:25;6.70;;;3.00;;
13720;SDS011;6932;51.438;5.470;2022-10-19T03:18:51;6.90;;;3.20;;
13720;SDS011;6932;51.438;5.470;2022-10-19T03:21:17;7.47;;;3.20;;
13720;SDS011;6932;51.438;5.470;2022-10-19T03:23:43;6.67;;;3.10;;
13720;SDS011;6932;51.438;5.470;2022-10-19T03:26:11;7.03;;;3.00;;
13720;SDS011;6932;51.438;5.470;2022-10-19T03:28:40;8.03;;;3.20;;
13720;SDS011;6932;51.438;5.470;2022-10-19T03:31:06;4.87;;;2.83;;
13720;SDS011;6932;51.438;5.470;2022-10-19T03:33:32;7.53;;;3.33;;
13720;SDS011;6932;51.438;5.470;2022-10-19T03:38:59;7.50;;;3.20;;
13720;SDS011;6932;51.438;5.470;2022-10-19T03:41:28;8.57;;;3.60;;
13720;SDS011;6932;51.438;5.470;2022-10-19T03:43:58;7.17;;;3.10;;
13720;SDS011;6932;51.438;5.470;2022-10-19T03:46:24;8.33;;;3.30;;
13720;SDS011;6932;51.438;5.470;2022-10-19T03:48:50;6.37;;;3.10;;
13720;SDS011;6932;51.438;5.470;2022-10-19T03:51:18;6.70;;;3.00;;
13720;SDS011;6932;51.438;5.470;2022-10-19T03:53:50;5.57;;;3.20;;
13720;SDS011;6932;51.438;5.470;2022-10-19T03:56:18;6.77;;;3.20;;
13720;SDS011;6932;51.438;5.470;2022-10-19T03:58:47;7.70;;;3.60;;
13720;SDS011;6932;51.438;5.470;2022-10-19T04:01:16;6.80;;;3.20;;
13720;SDS011;6932;51.438;5.470;2022-10-19T04:03:45;5.87;;;3.40;;
13720;SDS011;6932;51.438;5.470;2022-10-19T04:06:12;9.53;;;3.60;;
13720;SDS011;6932;51.438;5.470;2022-10-19T04:08:41;5.50;;;3.10;;
13720;SDS011;6932;51.438;5.470;2022-10-19T04:11:09;6.10;;;3.03;;
13720;SDS011;6932;51.438;5.470;2022-10-19T04:13:38;8.07;;;3.27;;
13720;SDS011;6932;51.438;5.470;2022-10-19T04:16:05;8.23;;;3.33;;
13720;SDS011;6932;51.438;5.470;2022-10-19T04:18:32;7.97;;;3.40;;
13720;SDS011;6932;51.438;5.470;2022-10-19T04:20:58;6.83;;;3.60;;
13720;SDS011;6932;51.438;5.470;2022-10-19T04:23:27;6.50;;;3.10;;
13720;SDS011;6932;51.438;5.470;2022-10-19T04:25:59;6.40;;;3.00;;
13720;SDS011;6932;51.438;5.470;2022-10-19T04:28:28;8.60;;;3.53;;
13720;SDS011;6932;51.438;5.470;2022-10-19T04:30:54;6.97;;;2.93;;
13720;SDS011;6932;51.438;5.470;2022-10-19T04:33:20;6.40;;;3.20;;
13720;SDS011;6932;51.438;5.470;2022-10-19T04:35:46;7.10;;;2.93;;
13720;SDS011;6932;51.438;5.470;2022-10-19T04:38:12;6.13;;;2.90;;
13720;SDS011;6932;51.438;5.470;2022-10-19T04:40:38;7.93;;;3.10;;
13720;SDS011;6932;51.438;5.470;2022-10-19T04:43:03;10.43;;;3.40;;
13720;SDS011;6932;51.438;5.470;2022-10-19T04:45:30;5.20;;;2.97;;
13720;SDS011;6932;51.438;5.470;2022-10-19T04:47:59;8.80;;;3.20;;
13720;SDS011;6932;51.438;5.470;2022-10-19T04:50:25;7.37;;;3.10;;
13720;SDS011;6932;51.438;5.470;2022-10-19T04:52:51;6.57;;;3.33;;
13720;SDS011;6932;51.438;5.470;2022-10-19T04:55:16;5.80;;;3.30;;
13720;SDS011;6932;51.438;5.470;2022-10-19T04:57:42;8.10;;;3.30;;
13720;SDS011;6932;51.438;5.470;2022-10-19T05:00:08;8.30;;;3.20;;
13720;SDS011;6932;51.438;5.470;2022-10-19T05:02:34;6.17;;;3.10;;
13720;SDS011;6932;51.438;5.470;2022-10-19T05:05:00;5.20;;;3.00;;
13720;SDS011;6932;51.438;5.470;2022-10-19T05:07:26;5.60;;;3.10;;
13720;SDS011;6932;51.438;5.470;2022-10-19T05:09:51;6.70;;;3.07;;
13720;SDS011;6932;51.438;5.470;2022-10-19T05:12:17;4.90;;;2.90;;
13720;SDS011;6932;51.438;5.470;2022-10-19T05:14:43;5.83;;;3.10;;
13720;SDS011;6932;51.438;5.470;2022-10-19T05:17:08;6.60;;;3.07;;
13720;SDS011;6932;51.438;5.470;2022-10-19T05:19:34;7.43;;;3.27;;
13720;SDS011;6932;51.438;5.470;2022-10-19T05:21:59;6.87;;;3.20;;
13720;SDS011;6932;51.438;5.470;2022-10-19T05:24:25;5.93;;;3.37;;
13720;SDS011;6932;51.438;5.470;2022-10-19T05:26:51;6.53;;;3.27;;
13720;SDS011;6932;51.438;5.470;2022-10-19T05:29:17;8.00;;;3.30;;
13720;SDS011;6932;51.438;5.470;2022-10-19T05:31:42;8.60;;;3.20;;
13720;SDS011;6932;51.438;5.470;2022-10-19T05:34:08;8.43;;;3.43;;
13720;SDS011;6932;51.438;5.470;2022-10-19T05:36:35;7.53;;;3.47;;
13720;SDS011;6932;51.438;5.470;2022-10-19T05:39:05;7.70;;;3.53;;
13720;SDS011;6932;51.438;5.470;2022-10-19T05:41:36;8.17;;;3.07;;
13720;SDS011;6932;51.438;5.470;2022-10-19T05:44:02;8.77;;;3.50;;
13720;SDS011;6932;51.438;5.470;2022-10-19T05:46:29;7.87;;;3.30;;
13720;SDS011;6932;51.438;5.470;2022-10-19T05:48:57;8.00;;;3.63;;
13720;SDS011;6932;51.438;5.470;2022-10-19T05:51:24;7.93;;;3.57;;
13720;SDS011;6932;51.438;5.470;2022-10-19T05:53:54;7.23;;;3.40;;
13720;SDS011;6932;51.438;5.470;2022-10-19T05:56:22;6.73;;;3.13;;
13720;SDS011;6932;51.438;5.470;2022-10-19T05:58:51;7.30;;;3.20;;
13720;SDS011;6932;51.438;5.470;2022-10-19T06:01:18;7.47;;;3.27;;
13720;SDS011;6932;51.438;5.470;2022-10-19T06:03:45;5.67;;;2.97;;
13720;SDS011;6932;51.438;5.470;2022-10-19T06:06:14;8.50;;;3.37;;
13720;SDS011;6932;51.438;5.470;2022-10-19T06:08:40;9.23;;;3.60;;
13720;SDS011;6932;51.438;5.470;2022-10-19T06:11:07;7.40;;;3.20;;
13720;SDS011;6932;51.438;5.470;2022-10-19T06:13:37;6.93;;;3.70;;
13720;SDS011;6932;51.438;5.470;2022-10-19T06:16:05;7.70;;;3.27;;
13720;SDS011;6932;51.438;5.470;2022-10-19T06:18:33;6.40;;;3.20;;
13720;SDS011;6932;51.438;5.470;2022-10-19T06:21:18;7.77;;;3.40;;
13720;SDS011;6932;51.438;5.470;2022-10-19T06:23:50;7.97;;;3.20;;
13720;SDS011;6932;51.438;5.470;2022-10-19T06:26:24;8.10;;;3.30;;
13720;SDS011;6932;51.438;5.470;2022-10-19T06:28:53;7.53;;;3.20;;
13720;SDS011;6932;51.438;5.470;2022-10-19T06:31:22;6.73;;;3.40;;
13720;SDS011;6932;51.438;5.470;2022-10-19T06:33:48;8.40;;;3.50;;
13720;SDS011;6932;51.438;5.470;2022-10-19T06:36:14;8.37;;;3.23;;
13720;SDS011;6932;51.438;5.470;2022-10-19T06:38:44;8.57;;;3.50;;
13720;SDS011;6932;51.438;5.470;2022-10-19T06:41:11;6.10;;;3.20;;
13720;SDS011;6932;51.438;5.470;2022-10-19T06:43:37;7.90;;;3.20;;
13720;SDS011;6932;51.438;5.470;2022-10-19T06:46:04;5.93;;;3.00;;
13720;SDS011;6932;51.438;5.470;2022-10-19T06:48:32;8.60;;;3.30;;
13720;SDS011;6932;51.438;5.470;2022-10-19T06:50:59;7.53;;;3.60;;
13720;SDS011;6932;51.438;5.470;2022-10-19T06:53:28;7.17;;;3.60;;
13720;SDS011;6932;51.438;5.470;2022-10-19T06:55:58;5.53;;;3.00;;
13720;SDS011;6932;51.438;5.470;2022-10-19T06:58:26;6.27;;;3.37;;
13720;SDS011;6932;51.438;5.470;2022-10-19T07:00:55;8.87;;;3.43;;
13720;SDS011;6932;51.438;5.470;2022-10-19T07:03:24;6.23;;;3.10;;
13720;SDS011;6932;51.438;5.470;2022-10-19T07:05:55;8.37;;;3.60;;
13720;SDS011;6932;51.438;5.470;2022-10-19T07:08:27;7.63;;;3.70;;
13720;SDS011;6932;51.438;5.470;2022-10-19T07:10:56;5.10;;;3.20;;
13720;SDS011;6932;51.438;5.470;2022-10-19T07:13:25;7.33;;;3.20;;
13720;SDS011;6932;51.438;5.470;2022-10-19T07:16:03;7.77;;;3.30;;
13720;SDS011;6932;51.438;5.470;2022-10-19T07:18:35;7.77;;;3.63;;
13720;SDS011;6932;51.438;5.470;2022-10-19T07:21:05;6.47;;;3.40;;
13720;SDS011;6932;51.438;5.470;2022-10-19T07:23:35;7.53;;;3.50;;
13720;SDS011;6932;51.438;5.470;2022-10-19T07:26:04;8.03;;;3.50;;
13720;SDS011;6932;51.438;5.470;2022-10-19T07:28:36;11.17;;;3.50;;
13720;SDS011;6932;51.438;5.470;2022-10-19T07:31:06;7.57;;;3.40;;
13720;SDS011;6932;51.438;5.470;2022-10-19T07:33:36;6.93;;;3.30;;
13720;SDS011;6932;51.438;5.470;2022-10-19T07:36:03;7.73;;;3.50;;
13720;SDS011;6932;51.438;5.470;2022-10-19T07:38:33;5.93;;;3.53;;
13720;SDS011;6932;51.438;5.470;2022-10-19T07:41:00;7.23;;;3.40;;
13720;SDS011;6932;51.438;5.470;2022-10-19T07:43:30;7.47;;;3.47;;
13720;SDS011;6932;51.438;5.470;2022-10-19T07:45:57;7.50;;;3.23;;
13720;SDS011;6932;51.438;5.470;2022-10-19T07:48:25;7.20;;;3.30;;
13720;SDS011;6932;51.438;5.470;2022-10-19T07:50:51;6.73;;;3.30;;
13720;SDS011;6932;51.438;5.470;2022-10-19T07:53:17;7.80;;;3.53;;
13720;SDS011;6932;51.438;5.470;2022-10-19T07:55:43;9.53;;;3.43;;
13720;SDS011;6932;51.438;5.470;2022-10-19T07:58:09;7.97;;;3.53;;
13720;SDS011;6932;51.438;5.470;2022-10-19T08:00:34;8.77;;;3.50;;
13720;SDS011;6932;51.438;5.470;2022-10-19T08:03:00;6.30;;;3.43;;
13720;SDS011;6932;51.438;5.470;2022-10-19T08:05:26;9.17;;;3.43;;
13720;SDS011;6932;51.438;5.470;2022-10-19T08:07:51;8.20;;;3.53;;
13720;SDS011;6932;51.438;5.470;2022-10-19T08:10:17;10.80;;;3.70;;
13720;SDS011;6932;51.438;5.470;2022-10-19T08:12:43;9.37;;;3.50;;
13720;SDS011;6932;51.438;5.470;2022-10-19T08:15:08;7.07;;;3.30;;
13720;SDS011;6932;51.438;5.470;2022-10-19T08:17:34;7.43;;;3.10;;
13720;SDS011;6932;51.438;5.470;2022-10-19T08:20:04;6.33;;;3.40;;
13720;SDS011;6932;51.438;5.470;2022-10-19T08:22:31;9.77;;;3.70;;
13720;SDS011;6932;51.438;5.470;2022-10-19T08:24:57;8.27;;;3.43;;
13720;SDS011;6932;51.438;5.470;2022-10-19T08:27:23;6.73;;;2.80;;
13720;SDS011;6932;51.438;5.470;2022-10-19T08:29:49;6.57;;;2.97;;
13720;SDS011;6932;51.438;5.470;2022-10-19T08:32:15;7.50;;;3.27;;
13720;SDS011;6932;51.438;5.470;2022-10-19T08:34:42;7.87;;;3.20;;
13720;SDS011;6932;51.438;5.470;2022-10-19T08:37:08;8.80;;;3.57;;
13720;SDS011;6932;51.438;5.470;2022-10-19T08:39:34;9.07;;;3.20;;
13720;SDS011;6932;51.438;5.470;2022-10-19T08:42:04;7.10;;;3.37;;
13720;SDS011;6932;51.438;5.470;2022-10-19T08:45:00;6.50;;;3.17;;
13720;SDS011;6932;51.438;5.470;2022-10-19T08:50:56;6.80;;;3.03;;
13720;SDS011;6932;51.438;5.470;2022-10-19T08:59:16;6.93;;;3.43;;
13720;SDS011;6932;51.438;5.470;2022-10-19T09:05:12;10.00;;;3.20;;
13720;SDS011;6932;51.438;5.470;2022-10-19T09:07:59;7.10;;;3.23;;
13720;SDS011;6932;51.438;5.470;2022-10-19T09:10:31;8.50;;;3.17;;
13720;SDS011;6932;51.438;5.470;2022-10-19T09:15:55;6.57;;;3.10;;
13720;SDS011;6932;51.438;5.470;2022-10-19T09:21:01;6.13;;;2.93;;
13720;SDS011;6932;51.438;5.470;2022-10-19T09:26:13;7.13;;;3.13;;
13720;SDS011;6932;51.438;5.470;2022-10-19T09:28:49;8.17;;;3.13;;
13720;SDS011;6932;51.438;5.470;2022-10-19T09:31:31;5.07;;;2.90;;
13720;SDS011;6932;51.438;5.470;2022-10-19T09:34:04;7.47;;;3.20;;
13720;SDS011;6932;51.438;5.470;2022-10-19T09:36:53;7.87;;;3.40;;
13720;SDS011;6932;51.438;5.470;2022-10-19T09:39:22;7.47;;;3.50;;
13720;SDS011;6932;51.438;5.470;2022-10-19T09:41:56;6.47;;;3.60;;
13720;SDS011;6932;51.438;5.470;2022-10-19T09:44:28;8.13;;;3.23;;
13720;SDS011;6932;51.438;5.470;2022-10-19T09:50:13;8.87;;;3.30;;
13720;SDS011;6932;51.438;5.470;2022-10-19T09:55:26;9.10;;;3.40;;
13720;SDS011;6932;51.438;5.470;2022-10-19T10:00:38;6.83;;;3.07;;
13720;SDS011;6932;51.438;5.470;2022-10-19T10:03:22;7.80;;;3.33;;
13720;SDS011;6932;51.438;5.470;2022-10-19T10:05:51;6.83;;;2.90;;
13720;SDS011;6932;51.438;5.470;2022-10-19T10:08:29;5.77;;;2.77;;
13720;SDS011;6932;51.438;5.470;2022-10-19T10:11:04;9.67;;;3.10;;
13720;SDS011;6932;51.438;5.470;2022-10-19T10:13:41;7.40;;;3.23;;
13720;SDS011;6932;51.438;5.470;2022-10-19T10:16:13;7.40;;;3.23;;
13720;SDS011;6932;51.438;5.470;2022-10-19T10:18:51;7.47;;;3.00;;
13720;SDS011;6932;51.438;5.470;2022-10-19T10:24:04;6.50;;;3.03;;
13720;SDS011;6932;51.438;5.470;2022-10-19T10:26:45;7.83;;;3.13;;
13720;SDS011;6932;51.438;5.470;2022-10-19T10:29:28;8.20;;;3.20;;
13720;SDS011;6932;51.438;5.470;2022-10-19T10:34:35;8.73;;;3.60;;
13720;SDS011;6932;51.438;5.470;2022-10-19T10:37:05;7.47;;;3.10;;
13720;SDS011;6932;51.438;5.470;2022-10-19T10:39:44;6.60;;;2.97;;
13720;SDS011;6932;51.438;5.470;2022-10-19T10:42:13;9.90;;;3.73;;
13720;SDS011;6932;51.438;5.470;2022-10-19T10:44:49;7.53;;;3.00;;
13720;SDS011;6932;51.438;5.470;2022-10-19T10:47:17;10.23;;;3.50;;
13720;SDS011;6932;51.438;5.470;2022-10-19T10:50:06;8.50;;;3.47;;
13720;SDS011;6932;51.438;5.470;2022-10-19T10:52:31;8.43;;;3.33;;
13720;SDS011;6932;51.438;5.470;2022-10-19T10:55:00;6.40;;;3.07;;
13720;SDS011;6932;51.438;5.470;2022-10-19T10:57:36;7.60;;;3.60;;
13720;SDS011;6932;51.438;5.470;2022-10-19T11:05:32;6.83;;;3.13;;
13720;SDS011;6932;51.438;5.470;2022-10-19T11:10:38;8.43;;;3.40;;
13720;SDS011;6932;51.438;5.470;2022-10-19T11:13:28;8.40;;;3.30;;
13720;SDS011;6932;51.438;5.470;2022-10-19T11:16:11;9.50;;;3.50;;
13720;SDS011;6932;51.438;5.470;2022-10-19T11:18:47;9.10;;;3.67;;
13720;SDS011;6932;51.438;5.470;2022-10-19T11:21:25;7.43;;;3.70;;
13720;SDS011;6932;51.438;5.470;2022-10-19T11:27:11;8.90;;;3.57;;
13720;SDS011;6932;51.438;5.470;2022-10-19T11:49:47;8.43;;;3.37;;
13720;SDS011;6932;51.438;5.470;2022-10-19T12:04:40;5.67;;;2.57;;
13720;SDS011;6932;51.438;5.470;2022-10-19T12:10:19;9.10;;;3.10;;
13720;SDS011;6932;51.438;5.470;2022-10-19T12:13:01;6.77;;;2.73;;
13720;SDS011;6932;51.438;5.470;2022-10-19T12:15:40;4.87;;;2.20;;
13720;SDS011;6932;51.438;5.470;2022-10-19T12:21:03;5.73;;;2.50;;
13720;SDS011;6932;51.438;5.470;2022-10-19T12:23:55;7.30;;;2.40;;
13720;SDS011;6932;51.438;5.470;2022-10-19T12:26:23;4.77;;;2.20;;
13720;SDS011;6932;51.438;5.470;2022-10-19T12:28:54;5.70;;;2.33;;
13720;SDS011;6932;51.438;5.470;2022-10-19T12:31:26;4.83;;;2.30;;
13720;SDS011;6932;51.438;5.470;2022-10-19T12:34:09;6.50;;;2.43;;
13720;SDS011;6932;51.438;5.470;2022-10-19T12:42:24;4.83;;;2.37;;
13720;SDS011;6932;51.438;5.470;2022-10-19T12:45:17;4.57;;;2.20;;
13720;SDS011;6932;51.438;5.470;2022-10-19T12:58:35;10.77;;;2.70;;
13720;SDS011;6932;51.438;5.470;2022-10-19T13:01:17;6.80;;;2.73;;
13720;SDS011;6932;51.438;5.470;2022-10-19T13:03:46;8.87;;;2.40;;
13720;SDS011;6932;51.438;5.470;2022-10-19T13:08:58;7.77;;;2.47;;
13720;SDS011;6932;51.438;5.470;2022-10-19T13:11:28;5.73;;;2.60;;
13720;SDS011;6932;51.438;5.470;2022-10-19T13:13:59;4.20;;;2.50;;
13720;SDS011;6932;51.438;5.470;2022-10-19T13:22:00;5.67;;;2.70;;
13720;SDS011;6932;51.438;5.470;2022-10-19T13:28:52;6.10;;;2.60;;
13720;SDS011;6932;51.438;5.470;2022-10-19T13:36:07;5.80;;;2.80;;
13720;SDS011;6932;51.438;5.470;2022-10-19T13:41:23;6.20;;;2.77;;
13720;SDS011;6932;51.438;5.470;2022-10-19T13:56:09;5.90;;;2.80;;
13720;SDS011;6932;51.438;5.470;2022-10-19T13:59:01;7.60;;;2.90;;
13720;SDS011;6932;51.438;5.470;2022-10-19T14:07:41;5.47;;;2.60;;
13720;SDS011;6932;51.438;5.470;2022-10-19T14:10:32;6.20;;;2.50;;
13720;SDS011;6932;51.438;5.470;2022-10-19T14:12:59;5.10;;;2.70;;
13720;SDS011;6932;51.438;5.470;2022-10-19T14:15:33;6.60;;;2.73;;
13720;SDS011;6932;51.438;5.470;2022-10-19T14:17:59;6.60;;;2.70;;
13720;SDS011;6932;51.438;5.470;2022-10-19T14:20:27;5.53;;;2.50;;
13720;SDS011;6932;51.438;5.470;2022-10-19T14:23:16;6.57;;;2.33;;
13720;SDS011;6932;51.438;5.470;2022-10-19T14:25:54;6.37;;;2.37;;
13720;SDS011;6932;51.438;5.470;2022-10-19T14:28:24;5.50;;;2.30;;
13720;SDS011;6932;51.438;5.470;2022-10-19T14:30:58;4.60;;;1.87;;
13720;SDS011;6932;51.438;5.470;2022-10-19T14:33:29;3.20;;;1.83;;
13720;SDS011;6932;51.438;5.470;2022-10-19T14:36:00;5.93;;;1.97;;
13720;SDS011;6932;51.438;5.470;2022-10-19T14:38:36;4.23;;;1.80;;
13720;SDS011;6932;51.438;5.470;2022-10-19T14:41:16;4.47;;;1.70;;
13720;SDS011;6932;51.438;5.470;2022-10-19T14:43:54;4.40;;;2.03;;
13720;SDS011;6932;51.438;5.470;2022-10-19T14:46:25;4.73;;;1.80;;
13720;SDS011;6932;51.438;5.470;2022-10-19T14:49:00;4.03;;;1.93;;
13720;SDS011;6932;51.438;5.470;2022-10-19T14:51:33;4.73;;;2.13;;
13720;SDS011;6932;51.438;5.470;2022-10-19T14:54:19;5.27;;;2.10;;
13720;SDS011;6932;51.438;5.470;2022-10-19T14:56:57;6.67;;;1.90;;
13720;SDS011;6932;51.438;5.470;2022-10-19T15:00:04;7.17;;;1.90;;
13720;SDS011;6932;51.438;5.470;2022-10-19T15:02:40;4.90;;;1.77;;
13720;SDS011;6932;51.438;5.470;2022-10-19T15:05:14;4.20;;;1.90;;
13720;SDS011;6932;51.438;5.470;2022-10-19T15:07:47;6.43;;;2.00;;
13720;SDS011;6932;51.438;5.470;2022-10-19T15:10:20;6.70;;;1.80;;
13720;SDS011;6932;51.438;5.470;2022-10-19T15:13:00;3.83;;;1.70;;
13720;SDS011;6932;51.438;5.470;2022-10-19T15:15:30;5.37;;;1.90;;
13720;SDS011;6932;51.438;5.470;2022-10-19T15:20:26;4.53;;;2.00;;
13720;SDS011;6932;51.438;5.470;2022-10-19T15:26:21;5.03;;;2.10;;
13720;SDS011;6932;51.438;5.470;2022-10-19T15:28:53;4.80;;;2.07;;
13720;SDS011;6932;51.438;5.470;2022-10-19T15:31:42;5.20;;;2.03;;
13720;SDS011;6932;51.438;5.470;2022-10-19T15:34:15;6.37;;;2.20;;
13720;SDS011;6932;51.438;5.470;2022-10-19T15:36:58;4.83;;;2.00;;
13720;SDS011;6932;51.438;5.470;2022-10-19T15:39:34;7.50;;;2.30;;
13720;SDS011;6932;51.438;5.470;2022-10-19T15:42:20;4.80;;;2.00;;
13720;SDS011;6932;51.438;5.470;2022-10-19T15:53:49;4.70;;;2.20;;
13720;SDS011;6932;51.438;5.470;2022-10-19T15:56:37;4.60;;;2.10;;
13720;SDS011;6932;51.438;5.470;2022-10-19T15:59:14;6.57;;;2.70;;
13720;SDS011;6932;51.438;5.470;2022-10-19T16:01:46;4.53;;;2.40;;
13720;SDS011;6932;51.438;5.470;2022-10-19T16:04:13;7.47;;;2.57;;
13720;SDS011;6932;51.438;5.470;2022-10-19T16:06:40;7.70;;;2.70;;
13720;SDS011;6932;51.438;5.470;2022-10-19T16:09:18;5.67;;;2.40;;
13720;SDS011;6932;51.438;5.470;2022-10-19T16:11:46;9.00;;;2.67;;
13720;SDS011;6932;51.438;5.470;2022-10-19T16:14:12;5.90;;;2.50;;
13720;SDS011;6932;51.438;5.470;2022-10-19T16:16:38;4.80;;;2.67;;
13720;SDS011;6932;51.438;5.470;2022-10-19T16:19:05;5.93;;;2.50;;
13720;SDS011;6932;51.438;5.470;2022-10-19T16:21:32;6.70;;;2.60;;
13720;SDS011;6932;51.438;5.470;2022-10-19T16:24:00;6.20;;;2.40;;
13720;SDS011;6932;51.438;5.470;2022-10-19T16:26:26;5.00;;;2.60;;
13720;SDS011;6932;51.438;5.470;2022-10-19T16:28:53;5.70;;;2.73;;
13720;SDS011;6932;51.438;5.470;2022-10-19T16:31:21;5.67;;;2.87;;
13720;SDS011;6932;51.438;5.470;2022-10-19T16:33:47;4.77;;;2.77;;
13720;SDS011;6932;51.438;5.470;2022-10-19T16:36:13;8.93;;;3.30;;
13720;SDS011;6932;51.438;5.470;2022-10-19T16:38:39;9.70;;;3.00;;
13720;SDS011;6932;51.438;5.470;2022-10-19T16:41:06;7.57;;;2.87;;
13720;SDS011;6932;51.438;5.470;2022-10-19T16:43:34;8.77;;;2.90;;
13720;SDS011;6932;51.438;5.470;2022-10-19T16:46:00;9.53;;;3.20;;
13720;SDS011;6932;51.438;5.470;2022-10-19T16:48:26;7.43;;;2.90;;
13720;SDS011;6932;51.438;5.470;2022-10-19T16:53:30;6.70;;;2.53;;
13720;SDS011;6932;51.438;5.470;2022-10-19T16:56:05;5.87;;;2.53;;
13720;SDS011;6932;51.438;5.470;2022-10-19T16:58:34;8.90;;;3.23;;
13720;SDS011;6932;51.438;5.470;2022-10-19T17:03:38;6.20;;;2.90;;
13720;SDS011;6932;51.438;5.470;2022-10-19T17:06:04;9.17;;;3.13;;
13720;SDS011;6932;51.438;5.470;2022-10-19T17:08:32;8.87;;;3.43;;
13720;SDS011;6932;51.438;5.470;2022-10-19T17:11:08;7.20;;;3.37;;
13720;SDS011;6932;51.438;5.470;2022-10-19T17:13:35;7.97;;;3.10;;
13720;SDS011;6932;51.438;5.470;2022-10-19T17:16:02;7.53;;;3.07;;
13720;SDS011;6932;51.438;5.470;2022-10-19T17:18:30;7.60;;;3.03;;
13720;SDS011;6932;51.438;5.470;2022-10-19T17:21:16;5.53;;;2.70;;
13720;SDS011;6932;51.438;5.470;2022-10-19T17:23:46;6.83;;;2.87;;
13720;SDS011;6932;51.438;5.470;2022-10-19T17:26:15;7.07;;;3.10;;
13720;SDS011;6932;51.438;5.470;2022-10-19T17:28:41;5.43;;;2.83;;
13720;SDS011;6932;51.438;5.470;2022-10-19T17:31:08;7.03;;;2.93;;
13720;SDS011;6932;51.438;5.470;2022-10-19T17:33:39;6.53;;;2.93;;
13720;SDS011;6932;51.438;5.470;2022-10-19T17:36:06;6.97;;;2.80;;
13720;SDS011;6932;51.438;5.470;2022-10-19T17:38:37;6.83;;;2.80;;
13720;SDS011;6932;51.438;5.470;2022-10-19T17:41:07;6.77;;;3.00;;
13720;SDS011;6932;51.438;5.470;2022-10-19T17:43:36;7.17;;;3.20;;
13720;SDS011;6932;51.438;5.470;2022-10-19T17:46:06;7.97;;;3.10;;
13720;SDS011;6932;51.438;5.470;2022-10-19T17:48:34;6.30;;;2.90;;
13720;SDS011;6932;51.438;5.470;2022-10-19T17:51:03;6.70;;;3.00;;
13720;SDS011;6932;51.438;5.470;2022-10-19T17:53:39;7.10;;;3.13;;
13720;SDS011;6932;51.438;5.470;2022-10-19T17:56:07;6.27;;;3.23;;
13720;SDS011;6932;51.438;5.470;2022-10-19T17:58:35;6.97;;;2.60;;
13720;SDS011;6932;51.438;5.470;2022-10-19T18:01:02;5.90;;;3.00;;
13720;SDS011;6932;51.438;5.470;2022-10-19T18:03:29;8.67;;;3.43;;
13720;SDS011;6932;51.438;5.470;2022-10-19T18:06:04;4.70;;;3.00;;
13720;SDS011;6932;51.438;5.470;2022-10-19T18:08:35;7.20;;;3.50;;
13720;SDS011;6932;51.438;5.470;2022-10-19T18:11:06;6.77;;;3.37;;
13720;SDS011;6932;51.438;5.470;2022-10-19T18:13:43;6.67;;;3.30;;
13720;SDS011;6932;51.438;5.470;2022-10-19T18:16:12;8.17;;;3.67;;
13720;SDS011;6932;51.438;5.470;2022-10-19T18:18:52;7.03;;;3.33;;
13720;SDS011;6932;51.438;5.470;2022-10-19T18:21:22;9.57;;;3.53;;
13720;SDS011;6932;51.438;5.470;2022-10-19T18:23:51;5.70;;;3.10;;